Time;durP1;ratioP1;P1;durP2;ratioP2;P2;SDS_P1;SDS_P2;PMS_P1;PMS_P2;Temp;Humidity;BMP_temperature;BMP_pressure;BME280_temperature;BME280_humidity;BME280_pressure;Samples;Min_cycle;Max_cycle;Signal;HPM_P1;HPM_P2
2022/11/09 00:00:55;;;;;;;5.40;3.53;;;;;;;13.12;80.69;100386.63;5043940;28;20083;-61
2022/11/09 00:03:22;;;;;;;8.98;3.53;;;;;;;13.11;80.73;100381.38;5036077;28;20033;-60
2022/11/09 00:05:55;;;;;;;7.93;3.25;;;;;;;13.07;81.17;100385.28;5033995;28;20484;-60
2022/11/09 00:08:21;;;;;;;8.07;3.22;;;;;;;13.08;81.07;100382.47;5045516;28;20025;-60
2022/11/09 00:10:46;;;;;;;7.88;3.40;;;;;;;13.10;81.16;100393.88;5047940;28;20025;-60
2022/11/09 00:13:14;;;;;;;8.82;3.35;;;;;;;13.05;81.27;100374.72;5032803;28;20489;-61
2022/11/09 00:15:44;;;;;;;10.48;3.15;;;;;;;13.02;81.51;100374.13;5032406;28;20170;-60
2022/11/09 00:18:12;;;;;;;6.18;3.40;;;;;;;13.02;81.60;100368.78;5033987;28;20511;-60
2022/11/09 00:20:38;;;;;;;11.85;3.40;;;;;;;13.08;81.57;100376.28;5044609;28;20022;-60
2022/11/09 00:23:06;;;;;;;9.07;3.28;;;;;;;13.10;81.72;100385.88;5034025;28;20496;-60
2022/11/09 00:25:32;;;;;;;7.15;3.53;;;;;;;13.10;81.76;100377.88;5032947;28;20649;-60
2022/11/09 00:27:57;;;;;;;3.80;2.92;;;;;;;13.12;81.84;100383.94;5036971;28;20040;-60
2022/11/09 00:30:23;;;;;;;6.43;3.40;;;;;;;13.14;81.90;100386.47;5048719;28;20108;-60
2022/11/09 00:32:48;;;;;;;5.65;3.20;;;;;;;13.14;82.25;100381.13;5039316;28;20716;-60
2022/11/09 00:35:14;;;;;;;7.32;3.20;;;;;;;13.15;82.10;100378.34;5045952;28;20112;-60
2022/11/09 00:37:39;;;;;;;8.80;4.00;;;;;;;13.10;82.12;100369.84;5048907;28;20090;-60
2022/11/09 00:40:09;;;;;;;8.20;3.03;;;;;;;13.14;82.03;100365.13;5038924;28;20038;-60
2022/11/09 00:42:34;;;;;;;6.25;3.13;;;;;;;13.19;82.01;100365.59;5050588;28;20029;-60
2022/11/09 00:44:59;;;;;;;8.50;3.33;;;;;;;13.18;82.18;100366.56;5048189;28;20052;-60
2022/11/09 00:47:25;;;;;;;7.20;3.47;;;;;;;13.23;81.82;100369.69;5040588;28;20112;-60
2022/11/09 00:49:50;;;;;;;6.95;3.30;;;;;;;13.22;81.69;100373.34;5051867;28;20469;-60
2022/11/09 00:52:16;;;;;;;10.13;3.35;;;;;;;13.26;81.42;100374.81;5032227;28;20029;-60
2022/11/09 00:54:41;;;;;;;11.43;3.63;;;;;;;13.33;80.88;100356.50;5032673;28;20052;-60
2022/11/09 00:57:07;;;;;;;7.53;3.28;;;;;;;13.34;80.56;100369.69;5032518;28;20133;-60
2022/11/09 00:59:35;;;;;;;6.15;3.00;;;;;;;13.34;80.61;100367.03;5049271;28;20502;-60
2022/11/09 01:02:03;;;;;;;6.70;3.35;;;;;;;13.29;80.60;100352.34;5035158;28;20038;-60
2022/11/09 01:04:29;;;;;;;8.52;3.45;;;;;;;13.30;80.54;100360.25;5035715;28;20547;-60
2022/11/09 01:06:54;;;;;;;8.35;3.47;;;;;;;13.25;80.71;100361.56;5036021;28;20128;-60
2022/11/09 01:09:19;;;;;;;10.68;3.47;;;;;;;13.31;80.37;100367.28;5051582;28;20029;-60
2022/11/09 01:11:50;;;;;;;11.57;3.47;;;;;;;13.30;80.18;100373.59;5032193;28;20037;-60
2022/11/09 01:14:15;;;;;;;5.97;2.92;;;;;;;13.32;80.16;100373.47;5031582;28;20041;-60
2022/11/09 01:16:40;;;;;;;7.65;3.30;;;;;;;13.24;80.54;100384.75;5045939;28;20426;-60
2022/11/09 01:19:08;;;;;;;8.30;3.38;;;;;;;13.23;80.34;100383.06;5032062;28;20033;-60
2022/11/09 01:21:36;;;;;;;9.30;3.80;;;;;;;13.18;80.86;100391.44;5033047;28;20021;-60
2022/11/09 01:24:02;;;;;;;8.45;2.97;;;;;;;13.23;80.13;100398.22;5042975;28;20021;-60
2022/11/09 01:26:28;;;;;;;10.88;3.50;;;;;;;13.22;80.16;100400.06;5049799;28;20028;-60
2022/11/09 01:28:53;;;;;;;7.07;3.40;;;;;;;13.23;79.90;100404.41;5042950;28;20029;-60
2022/11/09 01:31:20;;;;;;;7.68;3.08;;;;;;;13.25;79.77;100401.63;5033322;28;20052;-60
2022/11/09 01:33:47;;;;;;;8.00;3.65;;;;;;;13.19;79.93;100397.63;5032776;28;20092;-60
2022/11/09 01:36:20;;;;;;;7.30;3.25;;;;;;;13.17;79.89;100405.75;5043771;28;20163;-60
2022/11/09 01:38:49;;;;;;;8.57;3.50;;;;;;;13.19;79.73;100403.81;5047302;28;20061;-60
2022/11/09 01:41:20;;;;;;;7.22;3.10;;;;;;;13.17;79.84;100402.25;5033478;28;20031;-60
2022/11/09 01:44:21;;;;;;;5.53;3.35;;;;;;;13.16;79.85;100403.22;5049896;28;20472;-60
2022/11/09 01:46:57;;;;;;;7.80;3.28;;;;;;;13.12;80.14;100402.63;5029398;28;20095;-60
2022/11/09 01:49:36;;;;;;;6.10;3.33;;;;;;;13.13;79.82;100403.47;5029943;28;20515;-60
2022/11/09 01:52:09;;;;;;;6.85;3.25;;;;;;;13.05;79.77;100396.06;5031143;28;20033;-60
2022/11/09 01:54:41;;;;;;;10.10;3.15;;;;;;;13.07;80.00;100393.28;5043492;28;20028;-60
2022/11/09 01:57:14;;;;;;;7.20;3.28;;;;;;;13.06;79.69;100381.78;5032816;28;20106;-60
2022/11/09 01:59:48;;;;;;;6.85;3.15;;;;;;;13.03;79.86;100387.38;5034722;28;20025;-60
2022/11/09 02:02:19;;;;;;;11.40;3.35;;;;;;;13.01;79.95;100383.97;5040996;28;20088;-60
2022/11/09 02:04:56;;;;;;;5.93;3.03;;;;;;;12.98;80.16;100407.38;5045649;28;20025;-60
2022/11/09 02:07:23;;;;;;;5.95;3.13;;;;;;;13.01;79.77;100401.81;5048353;28;20083;-60
2022/11/09 02:09:58;;;;;;;9.52;3.10;;;;;;;12.96;80.11;100392.31;5051358;28;20071;-60
2022/11/09 02:12:29;;;;;;;10.07;3.08;;;;;;;12.96;80.03;100399.50;5049697;28;20123;-60
2022/11/09 02:14:58;;;;;;;9.65;3.70;;;;;;;12.91;79.98;100397.22;5044181;28;20029;-60
2022/11/09 02:17:24;;;;;;;10.32;3.47;;;;;;;12.93;80.11;100402.41;5045527;28;20017;-60
2022/11/09 02:19:50;;;;;;;5.95;3.03;;;;;;;12.91;80.25;100399.00;5051716;28;20373;-60
2022/11/09 02:22:15;;;;;;;11.70;3.42;;;;;;;12.91;80.02;100401.66;5051763;28;20028;-60
2022/11/09 02:24:46;;;;;;;7.75;3.00;;;;;;;12.94;79.85;100401.41;5036606;28;20447;-60
2022/11/09 02:27:12;;;;;;;9.73;3.08;;;;;;;12.92;79.95;100414.91;5048475;28;20037;-60
2022/11/09 02:29:40;;;;;;;10.55;3.67;;;;;;;12.94;79.85;100418.31;5031960;28;20034;-60
2022/11/09 02:32:14;;;;;;;8.05;3.50;;;;;;;12.93;79.76;100418.41;5036475;28;20064;-60
2022/11/09 02:34:39;;;;;;;7.75;3.45;;;;;;;12.94;79.46;100426.31;5045438;28;20492;-60
2022/11/09 02:37:05;;;;;;;9.20;3.45;;;;;;;12.94;79.48;100434.31;5032910;28;20116;-60
2022/11/09 02:39:31;;;;;;;8.35;3.55;;;;;;;12.93;79.41;100421.09;5030983;28;20025;-60
2022/11/09 02:42:11;;;;;;;9.23;3.20;;;;;;;12.91;79.62;100410.56;5040058;28;20044;-60
2022/11/09 02:44:46;;;;;;;10.90;3.53;;;;;;;12.87;79.49;100393.06;5037427;28;20020;-60
2022/11/09 02:47:14;;;;;;;8.55;3.55;;;;;;;12.92;79.10;100390.03;5050456;28;20040;-60
2022/11/09 02:49:40;;;;;;;11.05;3.72;;;;;;;12.92;79.00;100393.56;5034020;28;20029;-60
2022/11/09 02:52:06;;;;;;;12.15;3.70;;;;;;;12.93;78.70;100397.06;5047359;28;20079;-61
2022/11/09 02:54:31;;;;;;;12.57;4.03;;;;;;;12.95;78.59;100389.78;5049047;28;20081;-60
2022/11/09 02:56:56;;;;;;;12.40;3.80;;;;;;;12.95;78.12;100358.59;5046089;28;20454;-60
2022/11/09 02:59:22;;;;;;;8.32;3.38;;;;;;;13.00;77.70;100365.38;5044835;28;20044;-60
2022/11/09 03:01:47;;;;;;;10.63;3.10;;;;;;;13.03;77.58;100379.34;5049349;28;20495;-60
2022/11/09 03:04:17;;;;;;;8.60;3.45;;;;;;;13.03;77.88;100399.84;5047656;28;20082;-60
2022/11/09 03:06:45;;;;;;;9.68;3.33;;;;;;;12.98;78.50;100391.38;5032451;28;20116;-60
2022/11/09 03:09:11;;;;;;;10.70;3.50;;;;;;;12.99;78.78;100398.41;5035212;28;20456;-60
2022/11/09 03:11:38;;;;;;;12.50;3.55;;;;;;;12.98;79.20;100410.91;5042613;28;20025;-60
2022/11/09 03:14:04;;;;;;;8.13;3.47;;;;;;;12.94;79.38;100410.31;5036749;28;20108;-61
2022/11/09 03:16:29;;;;;;;7.15;2.90;;;;;;;12.89;79.95;100417.81;5029663;28;20555;-60
2022/11/09 03:18:55;;;;;;;8.88;3.25;;;;;;;12.89;79.77;100425.00;5046049;28;20065;-60
2022/11/09 03:21:23;;;;;;;9.07;3.40;;;;;;;12.85;80.26;100432.41;5033860;28;20022;-60
2022/11/09 03:23:49;;;;;;;14.48;4.15;;;;;;;12.80;80.30;100426.56;5046225;28;20049;-60
2022/11/09 03:26:15;;;;;;;15.07;3.85;;;;;;;12.81;80.28;100436.25;5033873;28;20124;-60
2022/11/09 03:28:41;;;;;;;12.13;3.50;;;;;;;12.80;80.39;100431.06;5050346;28;20119;-60
2022/11/09 03:31:07;;;;;;;10.52;3.20;;;;;;;12.80;80.66;100436.41;5052669;28;20033;-60
2022/11/09 03:33:34;;;;;;;11.52;3.55;;;;;;;12.81;80.25;100440.75;5046146;28;20057;-60
2022/11/09 03:36:01;;;;;;;10.65;3.28;;;;;;;12.76;80.71;100440.25;5034480;28;20099;-60
2022/11/09 03:38:29;;;;;;;10.07;3.53;;;;;;;12.78;80.66;100447.19;5023859;28;20428;-60
2022/11/09 03:40:54;;;;;;;12.57;3.60;;;;;;;12.76;80.86;100441.09;5033155;28;20084;-60
2022/11/09 03:43:20;;;;;;;9.07;3.08;;;;;;;12.80;80.64;100447.06;5034514;28;20041;-60
2022/11/09 03:45:46;;;;;;;9.60;3.58;;;;;;;12.78;80.81;100449.84;5048894;28;20091;-60
2022/11/09 03:48:12;;;;;;;11.02;3.08;;;;;;;12.75;81.16;100454.59;5038008;28;20029;-60
2022/11/09 03:50:39;;;;;;;9.35;3.40;;;;;;;12.77;80.98;100452.66;5044436;28;20445;-60
2022/11/09 03:53:06;;;;;;;11.38;2.90;;;;;;;12.69;81.41;100453.25;5053856;28;20128;-60
2022/11/09 03:55:31;;;;;;;9.98;3.40;;;;;;;12.72;81.59;100469.00;5051358;28;20021;-60
2022/11/09 03:57:57;;;;;;;12.35;3.45;;;;;;;12.71;81.63;100465.50;5038846;28;20091;-60
2022/11/09 04:00:23;;;;;;;10.35;3.50;;;;;;;12.70;81.55;100476.28;5038744;28;20381;-60
2022/11/09 04:02:49;;;;;;;13.63;3.35;;;;;;;12.69;81.85;100469.25;5043280;28;20137;-60
2022/11/09 04:05:15;;;;;;;14.95;3.55;;;;;;;12.67;81.88;100476.50;5033679;28;20084;-60
2022/11/09 04:07:48;;;;;;;11.30;3.65;;;;;;;12.63;81.93;100477.75;5047076;28;20127;-60
2022/11/09 04:10:13;;;;;;;8.68;3.30;;;;;;;12.57;82.20;100473.72;5032628;28;20029;-60
2022/11/09 04:12:39;;;;;;;9.43;3.85;;;;;;;12.55;82.42;100482.81;5036659;28;20397;-60
2022/11/09 04:15:04;;;;;;;11.45;3.75;;;;;;;12.55;82.35;100483.66;5037235;28;20045;-60
2022/11/09 04:17:30;;;;;;;12.63;3.40;;;;;;;12.51;82.53;100490.19;5036897;28;20052;-60
2022/11/09 04:19:55;;;;;;;14.27;3.30;;;;;;;12.47;82.62;100480.72;5034880;28;20033;-60
2022/11/09 04:22:20;;;;;;;11.45;3.45;;;;;;;12.46;82.81;100495.88;5031936;28;20025;-61
2022/11/09 04:24:46;;;;;;;12.05;3.67;;;;;;;12.46;82.90;100492.38;5033262;28;20065;-61
2022/11/09 04:27:14;;;;;;;12.80;3.50;;;;;;;12.39;83.11;100500.00;5035281;28;20106;-60
2022/11/09 04:29:42;;;;;;;12.38;3.80;;;;;;;12.38;83.21;100511.66;5046041;28;20029;-60
2022/11/09 04:32:07;;;;;;;9.95;3.55;;;;;;;12.33;83.62;100521.81;5053761;28;20431;-61
2022/11/09 04:34:32;;;;;;;8.07;2.97;;;;;;;12.30;83.62;100506.03;5032428;28;20041;-60
2022/11/09 04:37:00;;;;;;;9.73;3.08;;;;;;;12.35;83.54;100516.34;5043993;28;20033;-60
2022/11/09 04:39:26;;;;;;;8.50;3.10;;;;;;;12.38;83.36;100516.09;5046841;28;20033;-60
2022/11/09 04:41:51;;;;;;;9.40;3.42;;;;;;;12.36;83.49;100515.38;5033135;28;20564;-60
2022/11/09 04:44:17;;;;;;;10.90;3.55;;;;;;;12.37;83.36;100517.94;5041780;28;20745;-60
2022/11/09 04:46:42;;;;;;;10.80;3.45;;;;;;;12.37;83.57;100523.25;5033334;28;20041;-60
2022/11/09 04:49:07;;;;;;;13.75;3.40;;;;;;;12.37;83.55;100511.75;5032637;28;20472;-60
2022/11/09 04:51:33;;;;;;;8.32;3.47;;;;;;;12.38;83.43;100518.75;5033007;28;20033;-60
2022/11/09 04:54:01;;;;;;;11.57;3.63;;;;;;;12.33;83.76;100521.81;5033222;28;20037;-60
2022/11/09 04:56:26;;;;;;;11.85;3.28;;;;;;;12.33;83.66;100515.63;5032932;28;20033;-60
2022/11/09 04:58:51;;;;;;;9.48;3.20;;;;;;;12.34;83.84;100522.66;5043198;28;20035;-60
2022/11/09 05:01:19;;;;;;;11.25;3.55;;;;;;;12.35;84.12;100517.19;5047124;28;20040;-60
2022/11/09 05:03:44;;;;;;;11.25;3.58;;;;;;;12.30;84.22;100519.38;5038575;28;20434;-60
2022/11/09 05:08:54;;;;;;;10.02;3.92;;;;;;;12.28;84.19;100518.63;5043652;28;20095;-60
2022/11/09 05:11:21;;;;;;;11.73;3.70;;;;;;;12.26;84.40;100518.75;5051739;28;20033;-60
2022/11/09 05:13:50;;;;;;;14.43;3.55;;;;;;;12.25;84.33;100513.53;5033513;28;20511;-60
2022/11/09 05:16:18;;;;;;;12.55;4.10;;;;;;;12.22;84.48;100511.09;5034526;28;20454;-60
2022/11/09 05:18:44;;;;;;;12.13;3.50;;;;;;;12.21;84.46;100510.25;5045602;28;20477;-60
2022/11/09 05:21:10;;;;;;;10.30;3.58;;;;;;;12.19;84.60;100516.66;5034498;28;20080;-60
2022/11/09 05:26:21;;;;;;;14.48;3.45;;;;;;;12.12;84.99;100508.28;5050641;28;20120;-60
2022/11/09 05:28:47;;;;;;;13.40;3.83;;;;;;;12.10;84.96;100499.53;5047994;28;20460;-60
2022/11/09 05:31:12;;;;;;;14.27;3.53;;;;;;;12.08;85.05;100506.78;5030755;28;20080;-60
2022/11/09 05:33:38;;;;;;;14.60;4.18;;;;;;;12.05;85.01;100515.84;5044988;28;20025;-60
2022/11/09 05:36:04;;;;;;;15.35;3.58;;;;;;;12.06;85.07;100503.41;5034480;28;20033;-60
2022/11/09 05:38:30;;;;;;;11.20;3.75;;;;;;;12.04;85.21;100516.00;5035878;28;20036;-60
2022/11/09 05:40:55;;;;;;;11.60;3.58;;;;;;;12.02;85.12;100509.91;5021832;28;20032;-60
2022/11/09 05:43:21;;;;;;;12.02;3.50;;;;;;;11.99;85.29;100512.81;5049168;28;20112;-60
2022/11/09 05:45:46;;;;;;;13.55;3.78;;;;;;;11.97;85.15;100506.72;5047686;28;20025;-60
2022/11/09 05:48:14;;;;;;;10.25;3.42;;;;;;;11.97;85.15;100520.06;5036203;28;20034;-60
2022/11/09 05:50:40;;;;;;;10.70;3.60;;;;;;;11.93;85.29;100500.78;5042805;28;20022;-60
2022/11/09 05:53:06;;;;;;;10.48;4.00;;;;;;;11.97;85.39;100514.72;5037847;28;20025;-60
2022/11/09 05:55:31;;;;;;;10.00;3.90;;;;;;;11.98;85.57;100516.44;5049710;28;20099;-60
2022/11/09 05:57:57;;;;;;;18.67;4.18;;;;;;;11.94;85.39;100510.50;5034183;28;20033;-60
2022/11/09 06:00:25;;;;;;;9.95;3.65;;;;;;;11.91;85.66;100508.06;5032948;28;20060;-60
2022/11/09 06:02:51;;;;;;;12.95;3.80;;;;;;;11.89;85.67;100506.47;5050676;28;20111;-60
2022/11/09 06:05:18;;;;;;;10.15;4.28;;;;;;;11.90;85.92;100519.66;5042043;28;20101;-60
2022/11/09 06:07:47;;;;;;;10.65;3.97;;;;;;;11.89;85.89;100515.31;5041952;28;20078;-60
2022/11/09 06:10:12;;;;;;;12.88;4.25;;;;;;;11.89;85.98;100517.97;5050563;28;20059;-60
2022/11/09 06:12:38;;;;;;;18.30;5.70;;;;;;;11.92;86.15;100514.25;5037780;28;20370;-60
2022/11/09 06:15:07;;;;;;;12.95;3.25;;;;;;;11.88;85.93;100518.06;5044573;28;20032;-60
2022/11/09 06:17:32;;;;;;;12.27;4.18;;;;;;;11.88;86.08;100515.41;5043701;28;20428;-60
2022/11/09 06:19:58;;;;;;;16.50;4.78;;;;;;;11.86;86.09;100520.88;5032576;28;20038;-60
2022/11/09 06:22:23;;;;;;;13.82;4.20;;;;;;;11.80;86.55;100527.47;5032527;28;20092;-60
2022/11/09 06:24:51;;;;;;;11.73;4.00;;;;;;;11.81;86.62;100526.50;5043868;28;20036;-60
2022/11/09 06:27:17;;;;;;;16.83;3.92;;;;;;;11.80;86.69;100534.63;5048244;28;20037;-60
2022/11/09 06:29:42;;;;;;;15.18;4.10;;;;;;;11.79;86.57;100539.09;5017210;28;20548;-60
2022/11/09 06:32:08;;;;;;;16.25;4.05;;;;;;;11.77;87.01;100540.16;5047764;28;20045;-60
2022/11/09 06:34:36;;;;;;;13.52;4.20;;;;;;;11.77;87.02;100534.84;5035234;28;20400;-60
2022/11/09 06:37:03;;;;;;;13.27;4.20;;;;;;;11.73;87.16;100536.00;5047310;28;20025;-60
2022/11/09 06:39:31;;;;;;;12.52;3.85;;;;;;;11.75;87.31;100544.75;5030487;28;20072;-60
2022/11/09 06:42:01;;;;;;;9.95;3.80;;;;;;;11.73;87.43;100538.66;5033259;28;20037;-60
2022/11/09 06:44:27;;;;;;;14.02;3.90;;;;;;;11.71;87.66;100538.81;5046779;28;20029;-60
2022/11/09 06:46:53;;;;;;;12.38;4.22;;;;;;;11.71;87.71;100544.13;5035847;28;20076;-60
2022/11/09 06:49:20;;;;;;;11.40;4.55;;;;;;;11.73;87.78;100544.00;5031263;28;20496;-60
2022/11/09 06:51:46;;;;;;;10.20;3.72;;;;;;;11.74;87.62;100548.38;5043997;28;20033;-60
2022/11/09 06:54:11;;;;;;;12.43;3.67;;;;;;;11.71;88.07;100546.78;5047798;28;20029;-60
2022/11/09 06:56:39;;;;;;;8.30;3.72;;;;;;;11.71;87.78;100544.13;5046558;28;20110;-60
2022/11/09 06:59:07;;;;;;;14.18;4.07;;;;;;;11.79;87.38;100554.22;5033216;28;20510;-60
2022/11/09 07:01:33;;;;;;;7.97;3.20;;;;;;;11.72;87.72;100550.31;5034242;28;20083;-60
2022/11/09 07:03:58;;;;;;;12.75;3.88;;;;;;;11.72;87.68;100553.81;5029859;28;20495;-60
2022/11/09 07:06:24;;;;;;;14.00;4.53;;;;;;;11.73;87.33;100550.16;5035314;28;20034;-60
2022/11/09 07:08:53;;;;;;;16.50;4.25;;;;;;;11.71;87.69;100560.13;5035582;28;20037;-60
2022/11/09 07:11:21;;;;;;;10.68;3.83;;;;;;;11.68;87.73;100560.34;5046483;28;20099;-60
2022/11/09 07:13:49;;;;;;;12.55;4.13;;;;;;;11.64;87.57;100558.84;5044412;28;20080;-61
2022/11/09 07:16:18;;;;;;;11.38;4.10;;;;;;;11.69;87.61;100569.16;5036342;28;20033;-60
2022/11/09 07:18:44;;;;;;;14.30;4.37;;;;;;;11.67;87.73;100569.28;5037922;28;20391;-61
2022/11/09 07:21:11;;;;;;;13.98;5.35;;;;;;;11.69;87.64;100582.50;5034333;28;20287;-60
2022/11/09 07:23:36;;;;;;;10.32;3.92;;;;;;;11.65;87.50;100571.22;5034888;28;20041;-60
2022/11/09 07:26:03;;;;;;;11.70;4.00;;;;;;;11.71;87.52;100577.91;5041318;28;20503;-60
2022/11/09 07:28:29;;;;;;;10.43;3.90;;;;;;;11.68;87.73;100573.66;5041065;28;20244;-60
2022/11/09 07:30:56;;;;;;;11.13;3.53;;;;;;;11.71;87.39;100585.91;5035197;28;20484;-60
2022/11/09 07:33:22;;;;;;;10.70;3.70;;;;;;;11.72;87.75;100582.28;5048792;28;20033;-60
2022/11/09 07:35:50;;;;;;;14.43;4.07;;;;;;;11.69;87.73;100586.00;5036734;28;20395;-60
2022/11/09 07:38:16;;;;;;;12.73;4.25;;;;;;;11.70;87.55;100584.19;5034470;28;20112;-61
2022/11/09 07:40:42;;;;;;;14.55;4.38;;;;;;;11.70;87.45;100589.50;5038502;28;20159;-60
2022/11/09 07:43:09;;;;;;;14.70;4.10;;;;;;;11.70;87.78;100584.19;5041929;28;20028;-60
2022/11/09 07:45:35;;;;;;;16.90;4.60;;;;;;;11.70;87.72;100582.38;5034289;28;20034;-60
2022/11/09 07:48:04;;;;;;;11.10;4.13;;;;;;;11.73;87.38;100590.13;5034208;28;20049;-60
2022/11/09 07:50:33;;;;;;;9.35;3.63;;;;;;;11.76;87.27;100581.06;5059329;28;20052;-60
2022/11/09 07:53:00;;;;;;;13.10;3.28;;;;;;;11.80;87.35;100587.91;5036058;28;20029;-60
2022/11/09 07:55:29;;;;;;;14.48;4.18;;;;;;;11.82;87.31;100589.50;5035519;28;20631;-60
2022/11/09 07:58:07;;;;;;;15.93;4.07;;;;;;;11.86;87.03;100595.47;5054431;28;20433;-60
2022/11/09 08:00:35;;;;;;;15.57;4.38;;;;;;;11.84;86.81;100586.72;5051142;28;20029;-60
2022/11/09 08:03:00;;;;;;;12.07;3.28;;;;;;;11.87;86.91;100594.50;5053002;28;20048;-60
2022/11/09 08:05:26;;;;;;;13.80;4.32;;;;;;;11.91;86.85;100593.34;5048955;28;20113;-60
2022/11/09 08:08:00;;;;;;;13.18;4.13;;;;;;;11.89;86.69;100600.59;5040673;28;20117;-60
2022/11/09 08:10:29;;;;;;;13.45;4.22;;;;;;;11.97;86.57;100610.66;5033126;28;20431;-60
2022/11/09 08:12:56;;;;;;;10.60;4.13;;;;;;;11.96;86.29;100603.66;5032767;28;20427;-59
2022/11/09 08:15:25;;;;;;;11.88;4.03;;;;;;;12.00;86.32;100610.44;5034404;28;20049;-59
2022/11/09 08:17:53;;;;;;;12.48;3.63;;;;;;;12.00;86.49;100613.13;5033874;28;20026;-59
2022/11/09 08:20:19;;;;;;;9.85;3.70;;;;;;;11.97;86.50;100606.22;5032981;28;20037;-59
2022/11/09 08:22:46;;;;;;;10.30;3.83;;;;;;;11.97;86.38;100618.66;5039719;28;20017;-59
2022/11/09 08:25:12;;;;;;;9.57;3.80;;;;;;;11.98;85.99;100620.41;5049814;28;20029;-59
2022/11/09 08:27:41;;;;;;;13.93;3.88;;;;;;;11.96;86.36;100625.81;5041837;28;20033;-60
2022/11/09 08:30:14;;;;;;;12.27;3.75;;;;;;;12.01;86.04;100629.00;5032775;28;20550;-59
2022/11/09 08:32:44;;;;;;;10.95;3.85;;;;;;;12.08;85.79;100629.41;5033439;28;20081;-59
2022/11/09 08:35:16;;;;;;;11.18;3.67;;;;;;;12.08;85.14;100636.56;5042320;28;20021;-60
2022/11/09 08:37:42;;;;;;;14.52;4.30;;;;;;;12.08;85.73;100634.75;5051860;28;20459;-59
2022/11/09 08:40:09;;;;;;;13.80;3.75;;;;;;;12.15;85.22;100635.16;5033736;28;20044;-59
2022/11/09 08:42:34;;;;;;;13.00;4.45;;;;;;;12.17;85.32;100634.06;5033322;28;20025;-59
2022/11/09 08:45:00;;;;;;;12.07;3.53;;;;;;;12.21;84.92;100622.22;5030959;28;20522;-59
2022/11/09 08:47:26;;;;;;;12.60;3.97;;;;;;;12.31;85.09;100641.06;5038007;28;20412;-59
2022/11/09 08:49:52;;;;;;;11.93;4.10;;;;;;;12.40;84.26;100634.19;5047386;28;20024;-59
2022/11/09 08:52:18;;;;;;;9.48;4.10;;;;;;;12.41;83.92;100622.56;5033895;28;20036;-59
2022/11/09 08:54:46;;;;;;;9.27;3.75;;;;;;;12.52;83.98;100633.28;5034898;28;20043;-59
2022/11/09 08:57:11;;;;;;;11.32;4.03;;;;;;;12.56;83.34;100633.91;5051972;28;20100;-59
2022/11/09 08:59:37;;;;;;;11.23;3.92;;;;;;;12.59;83.51;100631.88;5053153;28;20108;-58
2022/11/09 09:02:03;;;;;;;8.55;3.58;;;;;;;12.58;82.66;100632.81;5050308;28;20094;-59
2022/11/09 09:04:29;;;;;;;12.48;4.32;;;;;;;12.63;82.40;100637.81;5053192;28;20037;-59
2022/11/09 09:06:58;;;;;;;11.68;3.95;;;;;;;12.64;81.91;100640.34;5051829;28;20107;-59
2022/11/09 09:09:24;;;;;;;;;;;;;;;12.73;82.55;100638.81;5052970;28;20032;-59
2022/11/09 09:11:51;;;;;;;11.90;3.33;;;;;;;12.76;82.18;100646.59;5051290;28;20245;-59
2022/11/09 09:14:17;;;;;;;11.27;3.42;;;;;;;12.77;80.53;100639.47;5038289;28;20060;-59
2022/11/09 09:16:42;;;;;;;12.15;3.58;;;;;;;12.83;80.69;100639.00;5038894;28;20029;-59
2022/11/09 09:19:08;;;;;;;10.02;3.80;;;;;;;12.94;80.41;100647.88;5032249;28;20025;-59
2022/11/09 09:21:34;;;;;;;9.73;3.45;;;;;;;13.04;80.06;100647.19;5030988;28;20052;-59
2022/11/09 09:23:59;;;;;;;12.90;3.97;;;;;;;13.05;79.45;100647.03;5032530;28;20037;-59
2022/11/09 09:26:24;;;;;;;11.57;3.63;;;;;;;13.02;78.98;100644.59;5039015;28;20028;-59
2022/11/09 09:28:50;;;;;;;12.68;3.17;;;;;;;13.07;78.14;100653.13;5052722;28;20492;-58
2022/11/09 09:31:16;;;;;;;10.40;3.50;;;;;;;13.10;78.35;100663.56;5052317;28;20044;-59
2022/11/09 09:33:41;;;;;;;10.10;3.58;;;;;;;13.11;78.71;100664.41;5051389;28;20025;-58
2022/11/09 09:36:08;;;;;;;11.95;3.33;;;;;;;13.14;78.32;100669.53;5050088;28;20028;-58
2022/11/09 09:38:37;;;;;;;11.50;3.63;;;;;;;13.10;77.95;100652.88;5032406;28;20140;-58
2022/11/09 09:41:34;;;;;;;12.75;3.70;;;;;;;13.18;78.54;100663.84;5038392;28;20079;-58
2022/11/09 09:44:12;;;;;;;10.63;3.80;;;;;;;13.19;77.38;100667.34;5051160;28;20017;-58
2022/11/09 09:46:50;;;;;;;12.97;3.80;;;;;;;13.26;77.64;100657.91;5052189;28;20125;-59
2022/11/09 09:49:32;;;;;;;11.50;3.75;;;;;;;13.33;76.82;100677.00;5051100;28;20040;-59
2022/11/09 09:52:04;;;;;;;12.68;4.20;;;;;;;13.46;75.82;100667.06;5050445;28;20051;-59
2022/11/09 09:54:42;;;;;;;10.57;3.65;;;;;;;13.56;75.48;100664.50;5051756;28;20021;-58
2022/11/09 09:57:17;;;;;;;9.57;3.72;;;;;;;13.74;74.90;100672.94;5034978;28;20107;-59
2022/11/09 09:59:50;;;;;;;11.40;3.67;;;;;;;13.84;73.98;100680.06;5051903;28;20533;-59
2022/11/09 10:02:25;;;;;;;12.95;3.88;;;;;;;14.05;73.09;100682.84;5050456;28;20029;-59
2022/11/09 10:04:54;;;;;;;10.60;3.88;;;;;;;14.44;72.24;100693.13;5051997;28;20103;-58
2022/11/09 10:07:47;;;;;;;9.63;3.08;;;;;;;14.63;70.64;100689.84;5051929;28;20029;-58
2022/11/09 10:10:58;;;;;;;9.40;3.22;;;;;;;14.89;70.39;100685.00;5051784;28;20089;-59
2022/11/09 10:13:42;;;;;;;11.48;3.53;;;;;;;14.65;69.60;100686.06;5032252;28;20075;-59
2022/11/09 10:16:16;;;;;;;8.38;3.22;;;;;;;14.83;68.85;100690.84;5047500;28;20072;-59
2022/11/09 10:18:47;;;;;;;12.65;3.65;;;;;;;14.80;68.04;100694.63;5032094;28;20025;-59
2022/11/09 10:21:34;;;;;;;9.70;2.88;;;;;;;14.87;68.73;100686.94;5032073;28;20033;-59
2022/11/09 10:24:20;;;;;;;11.90;3.63;;;;;;;15.01;68.22;100689.31;5032789;28;20053;-59
2022/11/09 10:26:59;;;;;;;11.43;3.22;;;;;;;15.12;67.12;100699.13;5031389;28;20079;-59
2022/11/09 10:29:44;;;;;;;10.77;3.13;;;;;;;15.16;66.55;100690.69;5046184;28;20079;-59
2022/11/09 10:32:17;;;;;;;14.30;3.42;;;;;;;14.96;66.37;100710.25;5046696;28;20449;-59
2022/11/09 10:34:55;;;;;;;9.85;3.08;;;;;;;14.72;66.70;100707.81;5049458;28;20041;-59
2022/11/09 10:37:31;;;;;;;11.48;2.63;;;;;;;14.57;67.69;100703.72;5044092;28;20022;-59
2022/11/09 10:40:05;;;;;;;8.93;3.17;;;;;;;14.61;67.86;100700.66;5046478;28;20037;-59
2022/11/09 10:42:32;;;;;;;13.82;4.22;;;;;;;14.67;66.69;100700.13;5031614;28;20495;-59
2022/11/09 10:45:13;;;;;;;10.27;3.50;;;;;;;14.62;68.36;100707.72;5032228;28;20450;-59
2022/11/09 10:47:50;;;;;;;9.80;3.15;;;;;;;14.70;68.47;100715.09;5031604;28;20026;-59
2022/11/09 10:50:33;;;;;;;6.93;2.80;;;;;;;14.61;66.86;100719.38;5031353;28;20100;-59
2022/11/09 10:53:30;;;;;;;9.45;3.08;;;;;;;14.52;68.20;100725.50;5031123;28;20115;-59
2022/11/09 10:56:03;;;;;;;14.18;3.30;;;;;;;14.23;67.78;100717.97;5031297;28;20131;-59
2022/11/09 10:58:36;;;;;;;11.38;3.40;;;;;;;14.14;69.36;100720.53;5047672;28;20029;-59
2022/11/09 11:01:14;;;;;;;8.70;3.38;;;;;;;14.08;69.14;100727.22;5049942;28;20029;-59
2022/11/09 11:03:41;;;;;;;9.10;2.88;;;;;;;14.14;68.87;100728.56;5048372;28;20056;-59
2022/11/09 11:06:17;;;;;;;13.15;3.60;;;;;;;14.16;69.29;100732.81;5051132;28;20025;-58
2022/11/09 11:08:48;;;;;;;12.43;3.42;;;;;;;14.00;69.55;100729.66;5049608;28;20104;-58
2022/11/09 11:11:21;;;;;;;8.43;3.08;;;;;;;13.98;69.86;100721.78;5030810;28;20444;-59
2022/11/09 11:13:50;;;;;;;7.25;3.17;;;;;;;13.93;69.51;100729.28;5029913;28;20166;-59
2022/11/09 11:16:15;;;;;;;12.40;3.03;;;;;;;13.93;69.13;100721.28;5030934;28;20017;-58
2022/11/09 11:18:49;;;;;;;10.32;3.25;;;;;;;13.89;69.88;100730.53;5031130;28;20040;-59
2022/11/09 11:21:17;;;;;;;8.68;3.28;;;;;;;13.73;70.54;100725.50;5045233;28;20021;-59
2022/11/09 11:23:43;;;;;;;9.60;3.77;;;;;;;13.70;71.06;100741.78;5031054;28;20033;-59
2022/11/09 11:26:29;;;;;;;7.93;3.05;;;;;;;13.76;70.97;100727.94;5029628;28;20030;-59
2022/11/09 11:29:09;;;;;;;10.88;3.75;;;;;;;13.77;71.15;100729.66;5031012;28;20116;-58
2022/11/09 11:31:36;;;;;;;8.77;3.45;;;;;;;13.76;68.94;100735.13;5032202;28;20408;-59